Flight Track Log - Related Links

Times and Time Zones

All times are in EDT time to prevent confusion due to time zone crossing. See the EJA907 flight status page for this flight to view local times or setup timezone preferences in your user account.

Time Position Orientation Groundspeed Altitude Reporting Facility
EDT Latitude Longitude Course Direction KTS MPH feet Rate Location/Type
Fri 05:54:19 PM 37.1433 -93.1975 115° Southeast 241 277 8,600  Level Kansas City Center
Fri 05:55:20 PM 37.1003 -93.0828 115° Southeast 327 376 11,000 2,380 Climbing Kansas City Center
Fri 05:56:00 PM 37.2271 -93.2328 117° Southeast  Level Estimated
Fri 05:56:20 PM 37.0575 -92.9686 115° Southeast 357 411 13,400  Level Kansas City Center
Fri 05:57:00 PM 37.2084 -93.0771 113° Southeast  Level Estimated
Fri 05:58:00 PM 37.1895 -92.9214 122° Southeast  Level Estimated
Fri 05:58:32 PM 36.9917 -92.6736 106° East 400 460 18,800  Level Memphis Center
Fri 05:59:32 PM 36.9714 -92.5328 100° East 405 466 20,900 2,154 Climbing Memphis Center
Fri 06:00:29 PM 36.9503 -92.4036 102° East 403 464 23,000 2,083 Climbing Kansas City Center
Fri 06:01:33 PM 36.9311 -92.2628 100° East 409 471 25,100 1,824 Climbing Kansas City Center
Fri 06:02:34 PM 36.9361 -92.1181 87° East 415 478 26,800 1,805 Climbing Kansas City Center
Fri 06:03:36 PM 36.9431 -91.9389 87° East 425 489 28,800 1,680 Climbing Kansas City Center
Fri 06:04:39 PM 36.9478 -91.7844 88° East 438 504 30,300 1,344 Climbing Kansas City Center
Fri 06:05:41 PM 36.9522 -91.6292 88° East 445 512 31,600 590 Climbing Kansas City Center
Fri 06:07:32 PM 36.9614 -91.3331 88° East 455 524 32,000 140 Climbing Memphis Center
Fri 06:08:32 PM 36.9647 -91.1567 89° East 480 552 32,000 550 Level Memphis Center
Fri 06:09:32 PM 36.9681 -90.9672 89° East 490 564 33,100 1,050 Climbing Memphis Center
Fri 06:10:32 PM 36.9769 -90.7958 86° East 495 570 34,100 1,000 Climbing Memphis Center
Fri 06:11:32 PM 36.9817 -90.6217 88° East 495 570 35,100 1,050 Climbing Memphis Center
Fri 06:12:32 PM 36.9819 -90.4453 90° East 495 570 36,200 950 Climbing Memphis Center
Fri 06:13:32 PM 36.9881 -90.2661 88° East 502 578 37,000 400 Climbing Memphis Center
Fri 06:14:32 PM 36.9919 -90.0739 88° East 523 602 37,000  Level Memphis Center
Fri 06:15:32 PM 36.9956 -89.8764 89° East 551 634 37,000  Level Memphis Center
Fri 06:16:32 PM 37.0008 -89.6789 88° East 556 640 37,000  Level Memphis Center
Fri 06:17:32 PM 37.0039 -89.4814 89° East 562 647 37,000  Level Memphis Center
Fri 06:18:32 PM 37.0064 -89.2814 89° East 567 652 37,000  Level Memphis Center
Fri 06:19:32 PM 37.0089 -89.1047 89° East 572 658 37,000 450 Level Memphis Center
Fri 06:20:32 PM 37.0108 -88.9072 89° East 567 652 37,900 1,000 Climbing Memphis Center
Fri 06:21:32 PM 37.0064 -88.7153 92° East 562 647 39,000 550 Climbing Memphis Center
Fri 06:22:32 PM 37.0036 -88.5203 91° East 557 641 39,000  Level Memphis Center
Fri 06:23:32 PM 36.9986 -88.3256 92° East 557 641 39,000  Level Memphis Center
Fri 06:24:32 PM 36.9911 -88.1389 93° East 545 627 39,000  Level Memphis Center
Fri 06:25:32 PM 36.9853 -87.9286 92° East 545 627 39,000  Level Memphis Center
Fri 06:26:32 PM 36.9792 -87.7367 92° East 551 634 39,000  Level Memphis Center
Fri 06:27:32 PM 36.9728 -87.5394 92° East 551 634 39,000  Level Memphis Center
Fri 06:28:32 PM 36.9661 -87.3503 92° East 551 634 39,000  Level Memphis Center
Fri 06:29:32 PM 36.9572 -87.1583 93° East 551 634 39,000  Level Memphis Center
Fri 06:30:32 PM 36.9522 -86.9692 92° East 551 634 39,000  Level Memphis Center
Fri 06:31:32 PM 36.9447 -86.7800 93° East 551 634 39,000  Level Memphis Center
Fri 06:32:32 PM 36.9375 -86.6064 93° East 551 634 39,000  Level Memphis Center
Fri 06:33:32 PM 36.9150 -86.4181 98° East 551 634 39,000  Level Memphis Center
Fri 06:36:04 PM 36.7472 -85.9764 115° Southeast 561 646 39,000 -308 Level Indianapolis Center
Fri 06:37:06 PM 36.6817 -85.8083 116° Southeast 549 632 37,900 -1,210 Descending Indianapolis Center
Fri 06:38:08 PM 36.6733 -85.5919 93° East 528 608 36,500 -1,355 Descending Indianapolis Center
Fri 06:39:10 PM 36.6967 -85.4028 81° East 547 629 35,100 -1,452 Descending Indianapolis Center
Fri 06:40:12 PM 36.7239 -85.2097 80° East 561 646 33,500 -1,548 Descending Indianapolis Center
Fri 06:41:14 PM 36.6881 -85.0158 103° East 579 666 31,900 -1,597 Descending Indianapolis Center
Fri 06:42:16 PM 36.6031 -84.8442 122° Southeast 581 669 30,200 -2,274 Descending Indianapolis Center
Fri 06:43:18 PM 36.5200 -84.6725 121° Southeast 578 665 27,200 -3,387 Descending Indianapolis Center
Fri 06:44:20 PM 36.4408 -84.5158 122° Southeast 539 620 23,200 -2,032 Descending Indianapolis Center
Fri 06:45:22 PM 36.3692 -84.3703 121° Southeast 501 577 23,000 -97 Descending Indianapolis Center
Fri 06:46:24 PM 36.2814 -84.1947 122° Southeast 497 572 23,000  Level Indianapolis Center
Fri 06:47:25 PM 36.2064 -84.0458 122° Southeast 502 578 23,000  Level Indianapolis Center
Fri 06:48:27 PM 36.1375 -83.8994 120° Southeast 493 567 23,000 -53 Level Indianapolis Center
Fri 06:49:18 PM 36.0872 -83.7869 119° Southeast 493 567 22,900 -1,081 Descending Atlanta Center
Fri 06:50:18 PM 36.0097 -83.6228 120° Southeast 493 567 21,000 -1,950 Descending Atlanta Center
Fri 06:51:18 PM 35.9444 -83.4744 118° Southeast 493 567 19,000 -1,000 Descending Atlanta Center
Fri 06:52:18 PM 35.8747 -83.3314 121° Southeast 493 567 19,000 -1,400 Level Atlanta Center
Fri 06:53:18 PM 35.8092 -83.1861 119° Southeast 488 562 16,200 -3,400 Descending Atlanta Center
Fri 06:54:18 PM 35.7497 -83.0511 118° Southeast 475 547 12,200 -2,650 Descending Atlanta Center
Fri 06:55:18 PM 35.7278 -82.9286 102° East 396 456 10,900 -1,350 Descending Atlanta Center
Fri 06:56:18 PM 35.7353 -82.8311 85° East 338 389 9,500 -1,600 Descending Atlanta Center
Fri 06:57:18 PM 35.7447 -82.7314 83° East 302 348 7,700 -1,400 Descending Atlanta Center
Fri 06:58:18 PM 35.7147 -82.6731 122° Southeast 223 257 6,700 -1,000 Descending Atlanta Center
Fri 06:59:18 PM 35.6644 -82.6483 158° South 200 230 5,700 2,150 Descending Atlanta Center
Fri 07:00:18 PM 35.6242 -82.5953 133° Southeast 200 230 11,000 2,650 Climbing Atlanta Center
Fri 07:01:18 PM 35.5819 -82.5525 141° Southeast 200 230 11,000  Level Atlanta Center
Fri 07:02:18 PM 35.5481 -82.5175 140° Southeast 200 230 11,000  Level Atlanta Center
Fri 07:04:00 PM 35.4333 -82.5333 160° South  Level FlightAware Approximate
Fri 07:11:00 PM 35.4362 -82.5418 160° South  Level Estimated

Login

Don't have an account? Register now (free) for customized features, flight alerts, and more!